Time;durP1;ratioP1;P1;durP2;ratioP2;P2;SDS_P1;SDS_P2;PMS_P1;PMS_P2;Temp;Humidity;BMP_temperature;BMP_pressure;BME280_temperature;BME280_humidity;BME280_pressure;Samples;Min_cycle;Max_cycle;Signal;HPM_P1;HPM_P2
2022/04/10 00:01:49;;;;;;;8.27;3.70;;;;;;;13.42;50.56;98034.28;5059489;28;20508;-69
2022/04/10 00:04:18;;;;;;;9.43;3.80;;;;;;;13.44;50.17;98032.22;5076900;28;20648;-68
2022/04/10 00:06:46;;;;;;;8.23;4.10;;;;;;;13.61;50.37;98031.72;5059573;28;20036;-69
2022/04/10 00:09:14;;;;;;;7.53;4.32;;;;;;;13.63;50.33;98032.31;5059934;28;20120;-68
2022/04/10 00:11:40;;;;;;;6.85;3.85;;;;;;;13.63;49.92;98005.63;5075417;28;20103;-69
2022/04/10 00:14:06;;;;;;;7.25;4.30;;;;;;;13.65;50.26;98030.25;5079995;28;20378;-70
2022/04/10 00:16:32;;;;;;;6.70;4.20;;;;;;;13.62;50.29;98026.19;5063087;28;20087;-69
2022/04/10 00:19:04;;;;;;;8.60;3.72;;;;;;;13.66;49.73;98029.22;5096769;28;20134;-69
2022/04/10 00:21:31;;;;;;;6.85;4.25;;;;;;;13.83;50.25;98016.97;5113987;28;20538;-70
2022/04/10 00:23:57;;;;;;;8.32;4.03;;;;;;;13.71;50.59;98022.22;5097215;28;20184;-70
2022/04/10 00:26:23;;;;;;;6.88;4.13;;;;;;;13.78;49.96;98014.16;5063402;28;20055;-70
2022/04/10 00:28:50;;;;;;;5.85;3.50;;;;;;;13.76;50.20;98033.03;5079876;28;20138;-70
2022/04/10 00:31:17;;;;;;;10.30;3.92;;;;;;;13.27;50.90;97977.78;5063508;28;20048;-71
2022/04/10 00:33:43;;;;;;;9.32;4.32;;;;;;;13.58;50.74;97996.44;5079569;28;20108;-69
2022/04/10 00:36:10;;;;;;;8.30;4.03;;;;;;;13.65;50.56;98004.41;5079715;28;20051;-70
2022/04/10 00:38:35;;;;;;;5.53;4.28;;;;;;;13.50;51.78;97999.38;5062780;28;20066;-70
2022/04/10 00:41:01;;;;;;;7.57;5.38;;;;;;;13.28;55.73;97992.75;5079258;28;20500;-69
2022/04/10 00:43:32;;;;;;;10.77;5.43;;;;;;;13.17;55.63;98003.28;5079883;28;20552;-68
2022/04/10 00:45:59;;;;;;;11.40;5.78;;;;;;;13.24;55.35;98001.38;5063216;28;20072;-68
2022/04/10 00:48:25;;;;;;;12.52;6.53;;;;;;;13.40;55.84;98011.56;5078906;28;20181;-70
2022/04/10 00:53:37;;;;;;;16.48;7.78;;;;;;;13.21;55.96;97993.81;5098476;28;20039;-68
2022/04/10 00:56:04;;;;;;;11.35;7.85;;;;;;;13.22;56.45;97996.25;5062149;28;20043;-68
2022/04/10 00:58:30;;;;;;;14.35;8.32;;;;;;;13.13;56.18;97978.91;5112863;28;20048;-68
2022/04/10 01:00:56;;;;;;;11.57;7.50;;;;;;;13.01;57.03;97979.78;5061929;28;20413;-68
2022/04/10 01:03:22;;;;;;;16.75;8.38;;;;;;;13.11;58.24;97980.16;5096624;28;20040;-67
2022/04/10 01:05:47;;;;;;;19.55;8.10;;;;;;;13.09;56.78;97984.88;5062162;28;20050;-68
2022/04/10 01:08:15;;;;;;;19.02;8.13;;;;;;;13.35;56.23;97990.88;5062283;28;20742;-71
2022/04/10 01:10:44;;;;;;;15.00;8.25;;;;;;;12.97;60.67;97998.03;5095806;28;20039;-67
2022/04/10 01:13:10;;;;;;;16.55;9.43;;;;;;;13.08;65.62;97997.41;5078872;28;20040;-68
2022/04/10 01:15:37;;;;;;;17.85;9.05;;;;;;;12.65;64.35;97987.53;5095565;28;20062;-68
2022/04/10 01:18:04;;;;;;;16.55;9.15;;;;;;;12.74;62.60;98000.41;5095548;28;20047;-68
2022/04/10 01:20:31;;;;;;;17.60;9.68;;;;;;;12.55;64.56;97993.28;5095660;28;20036;-68
2022/04/10 01:23:02;;;;;;;20.75;8.82;;;;;;;12.36;68.80;97967.53;5063087;28;20604;-69
2022/04/10 01:25:28;;;;;;;23.63;10.88;;;;;;;12.72;66.98;97999.78;5094603;28;20493;-69
2022/04/10 01:27:56;;;;;;;15.77;10.52;;;;;;;12.86;63.14;98005.88;5078766;28;20070;-69
2022/04/10 01:30:25;;;;;;;20.63;11.77;;;;;;;12.84;62.16;97990.09;5079205;28;20516;-75
2022/04/10 01:32:51;;;;;;;19.85;10.18;;;;;;;12.66;61.25;98000.63;5095316;28;20085;-69
2022/04/10 01:35:22;;;;;;;18.23;11.13;;;;;;;12.80;62.00;97983.56;5062175;28;20046;-69
2022/04/10 01:37:48;;;;;;;22.27;11.57;;;;;;;12.64;61.39;97993.88;5062594;28;20500;-70
2022/04/10 01:40:22;;;;;;;27.95;13.25;;;;;;;12.76;61.30;97985.00;5113757;27;20040;-69
2022/04/10 01:42:50;;;;;;;21.88;11.52;;;;;;;12.84;60.65;97982.09;5112076;28;20138;-69
2022/04/10 01:45:16;;;;;;;19.80;12.10;;;;;;;12.77;61.10;97984.00;5112193;28;20309;-69
2022/04/10 01:47:41;;;;;;;23.90;14.13;;;;;;;12.78;60.98;97980.28;5062127;28;20061;-68
2022/04/10 01:50:11;;;;;;;21.73;13.35;;;;;;;12.83;60.79;97980.47;5095990;28;20046;-68
2022/04/10 01:52:36;;;;;;;25.85;13.63;;;;;;;12.84;60.46;97975.97;5129905;27;20035;-69
2022/04/10 01:55:02;;;;;;;24.75;14.80;;;;;;;12.91;60.05;97974.09;5112391;28;20546;-68
2022/04/10 01:57:31;;;;;;;29.65;15.05;;;;;;;12.85;60.04;97954.44;5111845;28;20043;-70
2022/04/10 01:59:57;;;;;;;26.30;14.68;;;;;;;12.74;59.86;97960.44;5094984;28;20051;-76
2022/04/10 02:02:25;;;;;;;31.88;15.55;;;;;;;12.77;60.15;97959.19;5095699;28;20054;-70
2022/04/10 02:04:51;;;;;;;25.55;15.02;;;;;;;12.90;60.22;97949.28;5061164;28;20040;-69
2022/04/10 02:07:20;;;;;;;31.33;15.20;;;;;;;13.05;59.14;97952.50;5112049;28;20165;-69
2022/04/10 02:09:48;;;;;;;32.83;17.73;;;;;;;13.12;59.31;97953.28;5094498;28;20044;-69
2022/04/10 02:12:14;;;;;;;32.17;16.98;;;;;;;13.22;59.05;97956.28;5071287;28;20039;-70
2022/04/10 02:14:39;;;;;;;28.27;16.35;;;;;;;13.08;58.46;97962.75;5057010;28;20055;-69
2022/04/10 02:17:06;;;;;;;22.35;15.15;;;;;;;13.11;58.33;97950.84;5074043;28;20055;-67
2022/04/10 02:19:32;;;;;;;27.23;16.15;;;;;;;13.33;58.43;97965.47;5040335;28;20428;-69
2022/04/10 02:21:59;;;;;;;28.70;15.63;;;;;;;13.22;58.15;97958.16;5074279;28;20184;-69
2022/04/10 02:24:26;;;;;;;27.30;16.25;;;;;;;13.16;58.15;97962.47;5058224;28;20507;-70
2022/04/10 02:26:52;;;;;;;28.77;16.75;;;;;;;13.15;58.16;97952.03;5057305;28;20398;-70
2022/04/10 02:29:18;;;;;;;32.75;17.55;;;;;;;13.21;58.88;97957.31;5073949;28;20098;-70
2022/04/10 02:31:44;;;;;;;27.15;15.90;;;;;;;13.17;58.25;97957.97;5040486;28;20036;-69
2022/04/10 02:34:09;;;;;;;31.00;17.88;;;;;;;13.20;58.31;97954.88;5057135;28;20089;-70
2022/04/10 02:36:35;;;;;;;28.77;17.17;;;;;;;13.11;58.00;97961.50;5056089;28;20055;-70
2022/04/10 02:39:01;;;;;;;29.65;16.83;;;;;;;13.17;58.30;97958.78;5057053;28;20036;-68
2022/04/10 02:41:27;;;;;;;32.17;18.73;;;;;;;13.17;58.50;97949.97;5057421;28;20082;-70
2022/04/10 02:43:55;;;;;;;31.05;18.58;;;;;;;13.13;58.14;97962.09;5107926;28;20047;-70
2022/04/10 02:46:21;;;;;;;34.35;17.38;;;;;;;13.14;58.28;97951.22;5056905;28;20044;-70
2022/04/10 02:48:47;;;;;;;33.45;18.42;;;;;;;13.26;57.80;97954.00;5057068;28;20070;-70
2022/04/10 02:51:17;;;;;;;34.25;18.92;;;;;;;13.22;58.15;97958.94;5057406;28;20134;-72
2022/04/10 02:53:43;;;;;;;35.47;19.63;;;;;;;13.42;57.95;97970.28;5090379;28;20055;-70
2022/04/10 02:56:09;;;;;;;32.63;18.20;;;;;;;13.52;57.92;97943.97;5073910;28;20055;-70
2022/04/10 02:58:53;;;;;;;32.85;17.75;;;;;;;13.18;57.44;97968.41;5062652;28;20125;-70
2022/04/10 03:01:38;;;;;;;35.90;19.45;;;;;;;13.35;57.56;97964.19;5076537;28;20101;-70
2022/04/10 03:04:22;;;;;;;33.85;18.70;;;;;;;13.44;57.66;97946.91;5076620;28;20062;-71
2022/04/10 03:07:07;;;;;;;36.50;20.17;;;;;;;13.52;57.41;97954.63;5062514;28;20050;-71
2022/04/10 03:09:51;;;;;;;33.60;19.15;;;;;;;13.39;57.56;97946.72;5076410;28;20432;-71
2022/04/10 03:12:36;;;;;;;33.63;19.35;;;;;;;13.51;57.60;97960.19;5076530;28;20058;-70
2022/04/10 03:15:21;;;;;;;38.78;20.42;;;;;;;13.58;57.43;97966.28;5062050;28;20094;-71
2022/04/10 03:18:05;;;;;;;33.63;19.25;;;;;;;13.30;57.11;97966.69;5061922;28;20062;-70
2022/04/10 03:20:50;;;;;;;38.60;20.10;;;;;;;13.46;57.29;97968.84;5062016;28;20576;-69
2022/04/10 03:23:35;;;;;;;38.60;20.35;;;;;;;13.31;57.20;97952.34;5076077;28;20413;-69
2022/04/10 03:26:19;;;;;;;38.80;21.02;;;;;;;13.27;57.30;97955.63;5075535;28;20208;-69
2022/04/10 03:29:04;;;;;;;43.72;22.33;;;;;;;13.48;57.38;97957.97;5075959;28;20456;-70
2022/04/10 03:31:49;;;;;;;44.97;21.35;;;;;;;13.44;57.07;97964.75;5061618;28;20059;-69
2022/04/10 03:34:33;;;;;;;37.38;21.17;;;;;;;13.30;57.50;97956.03;5075652;28;20105;-71
2022/04/10 03:37:18;;;;;;;43.05;22.17;;;;;;;13.44;56.89;97956.75;5075486;28;20047;-70
2022/04/10 03:40:05;;;;;;;38.50;21.02;;;;;;;13.53;56.84;97964.25;5061893;28;20098;-70
2022/04/10 03:42:50;;;;;;;41.67;21.83;;;;;;;13.48;56.91;97953.41;5061902;28;20050;-70
2022/04/10 03:45:37;;;;;;;35.58;20.27;;;;;;;13.65;56.94;97961.72;5075290;28;20059;-70
2022/04/10 03:48:21;;;;;;;42.42;23.33;;;;;;;13.48;57.35;97955.28;5061067;28;20417;-70
2022/04/10 03:51:06;;;;;;;40.90;22.35;;;;;;;13.48;56.86;97963.28;5075199;28;20574;-70
2022/04/10 03:53:50;;;;;;;38.47;23.10;;;;;;;13.50;57.15;97977.22;5075657;28;20105;-70
2022/04/10 03:56:38;;;;;;;40.75;23.35;;;;;;;13.45;57.28;97972.53;5062189;28;20121;-70
2022/04/10 03:59:24;;;;;;;44.25;23.17;;;;;;;13.40;57.31;97983.03;5075723;28;20059;-70
2022/04/10 04:02:09;;;;;;;44.25;24.48;;;;;;;13.49;56.80;97981.75;5075897;28;20528;-71
2022/04/10 04:04:54;;;;;;;40.78;23.38;;;;;;;13.61;56.53;97973.84;5075638;28;20051;-70
2022/04/10 04:07:40;;;;;;;45.60;22.80;;;;;;;13.63;56.55;97957.63;5075255;28;20633;-70
2022/04/10 04:10:24;;;;;;;48.90;25.95;;;;;;;13.89;56.51;97984.06;5075349;28;20043;-70
2022/04/10 04:13:09;;;;;;;38.85;21.45;;;;;;;13.94;56.03;97995.75;5061380;28;20191;-70
2022/04/10 04:15:54;;;;;;;35.28;19.90;;;;;;;13.88;55.85;97995.78;5075166;28;20055;-70
2022/04/10 04:18:38;;;;;;;29.60;18.63;;;;;;;13.73;55.90;97993.44;5075082;28;20481;-69
2022/04/10 04:21:24;;;;;;;40.30;22.90;;;;;;;13.99;56.08;97982.53;5075423;28;20103;-69
2022/04/10 04:24:09;;;;;;;33.83;19.63;;;;;;;13.76;55.80;97992.22;5061071;28;20364;-70
2022/04/10 04:26:53;;;;;;;39.42;21.67;;;;;;;13.91;56.37;98000.69;5060718;28;20432;-69
2022/04/10 04:29:39;;;;;;;39.63;21.65;;;;;;;13.64;56.53;98016.09;5075223;28;20565;-70
2022/04/10 04:32:24;;;;;;;45.53;22.70;;;;;;;13.62;56.84;98007.50;5060980;28;20663;-70
2022/04/10 04:35:10;;;;;;;47.03;24.85;;;;;;;13.64;56.72;98010.75;5088886;28;20047;-71
2022/04/10 04:37:57;;;;;;;41.00;22.67;;;;;;;13.52;57.07;98012.50;5061762;28;20113;-69
2022/04/10 04:40:41;;;;;;;53.95;24.67;;;;;;;13.61;56.95;98005.06;5074818;28;20071;-70
2022/04/10 04:43:27;;;;;;;48.53;24.27;;;;;;;13.53;57.08;98009.59;5074902;28;20180;-70
2022/04/10 04:46:11;;;;;;;53.15;24.70;;;;;;;13.63;56.81;98009.13;5060480;28;20050;-70
2022/04/10 04:48:56;;;;;;;40.00;22.52;;;;;;;13.68;56.43;98008.47;5074973;28;20821;-70
2022/04/10 04:51:40;;;;;;;49.10;25.63;;;;;;;13.75;56.80;98018.06;5074636;28;20052;-70
2022/04/10 04:54:26;;;;;;;42.40;22.35;;;;;;;13.82;56.60;98018.00;5075173;28;20051;-69
2022/04/10 04:57:10;;;;;;;42.08;23.23;;;;;;;13.79;56.70;98013.94;5060928;28;20055;-70
2022/04/10 04:59:58;;;;;;;44.05;22.45;;;;;;;13.84;56.62;98030.09;5063709;28;20101;-69
2022/04/10 05:02:43;;;;;;;44.45;23.60;;;;;;;13.86;56.20;98022.69;5078744;28;20086;-69
2022/04/10 05:05:28;;;;;;;52.50;24.80;;;;;;;13.81;56.47;98029.75;5064626;28;20055;-69
2022/04/10 05:08:15;;;;;;;49.00;24.02;;;;;;;13.90;56.08;98031.88;5079023;28;20129;-69
2022/04/10 05:11:00;;;;;;;48.92;23.48;;;;;;;13.83;55.93;98041.00;5078359;28;20138;-71
2022/04/10 05:13:46;;;;;;;55.85;25.23;;;;;;;13.77;56.64;98048.03;5078597;28;20120;-71
2022/04/10 05:16:30;;;;;;;45.22;22.83;;;;;;;13.75;56.27;98049.25;5078235;28;20055;-70
2022/04/10 05:19:16;;;;;;;47.88;22.15;;;;;;;13.73;56.45;98041.47;5077804;28;20063;-64
2022/04/10 05:22:03;;;;;;;49.15;22.73;;;;;;;13.66;56.29;98034.53;5077938;28;20051;-64
2022/04/10 05:24:50;;;;;;;42.90;21.83;;;;;;;13.79;56.28;98050.47;5091768;28;20070;-64
2022/04/10 05:27:34;;;;;;;44.55;23.35;;;;;;;13.70;56.49;98038.44;5091927;28;20092;-64
2022/04/10 05:30:19;;;;;;;46.03;22.15;;;;;;;13.77;56.57;98069.38;5077139;28;20051;-64
2022/04/10 05:33:06;;;;;;;46.08;22.58;;;;;;;13.72;56.74;98060.34;5078771;28;20530;-64
2022/04/10 05:35:53;;;;;;;47.72;24.15;;;;;;;13.84;56.54;98064.78;5077683;28;20097;-64
2022/04/10 05:38:38;;;;;;;44.72;22.15;;;;;;;13.79;56.71;98066.47;5091920;28;20058;-67
2022/04/10 05:41:22;;;;;;;47.00;21.83;;;;;;;13.74;56.89;98069.78;5091666;28;20047;-64
2022/04/10 05:44:10;;;;;;;44.58;21.20;;;;;;;13.74;57.04;98058.31;5078110;28;20093;-65
2022/04/10 05:46:55;;;;;;;45.58;20.98;;;;;;;13.72;57.03;98055.84;5092311;28;20100;-65
2022/04/10 05:49:40;;;;;;;50.60;21.48;;;;;;;13.83;56.75;98078.34;5077297;28;20130;-64
2022/04/10 05:52:25;;;;;;;39.47;20.35;;;;;;;13.88;57.11;98084.69;5096893;28;20210;-66
2022/04/10 05:55:12;;;;;;;47.78;23.25;;;;;;;14.01;56.87;98094.44;5082122;28;20478;-66
2022/04/10 05:57:56;;;;;;;53.72;24.23;;;;;;;13.89;56.86;98080.16;5112271;28;20424;-65
2022/04/10 06:00:42;;;;;;;42.85;21.20;;;;;;;13.93;56.62;98086.69;5083844;28;20096;-65
2022/04/10 06:03:33;;;;;;;57.83;26.23;;;;;;;13.94;56.68;98067.81;5098833;28;20070;-67
2022/04/10 06:06:20;;;;;;;47.13;23.17;;;;;;;14.01;56.78;98107.81;5084235;28;20050;-65
2022/04/10 06:09:12;;;;;;;50.83;23.67;;;;;;;13.84;56.90;98085.34;5108584;28;20059;-66
2022/04/10 06:11:59;;;;;;;153.13;32.55;;;;;;;14.08;56.75;98121.91;5108640;28;20058;-67
2022/04/10 06:14:47;;;;;;;56.90;24.85;;;;;;;14.04;56.87;98115.38;5108642;28;20092;-66
2022/04/10 06:17:14;;;;;;;80.22;29.08;;;;;;;14.00;57.28;98112.31;5074798;28;20134;-69
2022/04/10 06:19:45;;;;;;;580.95;47.72;;;;;;;14.64;56.11;98131.50;5118244;28;20040;-66
2022/04/10 06:22:15;;;;;;;58.97;28.25;;;;;;;14.53;55.89;98126.88;5091936;28;20086;-66
2022/04/10 06:24:41;;;;;;;111.95;33.47;;;;;;;14.41;56.37;98135.81;5091346;28;20074;-67
2022/04/10 06:27:07;;;;;;;59.78;26.00;;;;;;;14.49;56.34;98139.06;5074044;28;20083;-67
2022/04/10 06:29:35;;;;;;;52.67;26.60;;;;;;;14.41;56.41;98147.34;5074443;28;20066;-66
2022/04/10 06:32:03;;;;;;;53.80;26.92;;;;;;;14.58;56.33;98153.75;5090647;28;20134;-67
2022/04/10 06:34:35;;;;;;;59.05;24.55;;;;;;;14.50;56.46;98150.56;5076125;28;20044;-69
2022/04/10 06:37:04;;;;;;;49.35;24.25;;;;;;;14.64;56.36;98149.38;5075151;28;20055;-70
2022/04/10 06:39:30;;;;;;;49.05;22.00;;;;;;;14.09;56.54;98131.53;5125088;27;20047;-67
2022/04/10 06:41:59;;;;;;;57.30;25.58;;;;;;;14.58;56.52;98150.25;5091800;28;20042;-69
2022/04/10 06:44:43;;;;;;;51.65;23.27;;;;;;;14.33;56.38;98147.59;5093509;28;20460;-67
2022/04/10 06:47:31;;;;;;;52.65;24.33;;;;;;;14.39;57.26;98144.06;5093581;28;20492;-68
2022/04/10 06:50:00;;;;;;;49.40;23.95;;;;;;;14.45;56.87;98143.19;5090953;28;20508;-68
2022/04/10 06:52:26;;;;;;;70.72;28.40;;;;;;;14.55;56.74;98151.53;5074193;28;20488;-67
2022/04/10 06:54:52;;;;;;;51.70;26.50;;;;;;;14.84;56.58;98155.34;5092276;28;20044;-67
2022/04/10 06:57:22;;;;;;;44.42;22.88;;;;;;;15.10;55.80;98158.59;5107879;27;20087;-67
2022/04/10 06:59:48;;;;;;;44.83;21.92;;;;;;;14.85;55.69;98149.00;5089489;28;20783;-66
2022/04/10 07:02:16;;;;;;;33.10;18.70;;;;;;;15.08;55.03;98165.19;5107765;28;20047;-67
2022/04/10 07:04:42;;;;;;;27.23;15.88;;;;;;;14.86;55.34;98180.03;5091200;28;20124;-68
2022/04/10 07:07:08;;;;;;;36.33;18.90;;;;;;;14.91;55.61;98197.03;5091294;28;20047;-65
2022/04/10 07:09:34;;;;;;;35.63;21.10;;;;;;;14.81;55.21;98188.69;5073419;28;20520;-65
2022/04/10 07:12:00;;;;;;;31.45;16.45;;;;;;;14.82;55.16;98206.38;5090891;28;20164;-67
2022/04/10 07:14:47;;;;;;;27.02;14.05;;;;;;;14.99;54.26;98191.41;5136433;27;20049;-65
2022/04/10 07:17:13;;;;;;;23.38;14.43;;;;;;;15.26;54.12;98205.31;5090559;28;20408;-67
2022/04/10 07:19:39;;;;;;;21.30;12.52;;;;;;;15.06;54.39;98218.91;5090365;28;20093;-67
2022/04/10 07:24:50;;;;;;;15.55;9.65;;;;;;;15.27;53.20;98225.66;5092736;28;20044;-66
2022/04/10 07:27:15;;;;;;;13.07;8.95;;;;;;;15.36;52.47;98237.72;5106838;28;20060;-67
2022/04/10 07:29:54;;;;;;;12.02;7.70;;;;;;;14.97;53.11;98254.97;5075173;28;20496;-67
2022/04/10 07:32:26;;;;;;;8.75;4.88;;;;;;;14.78;52.78;98261.31;5090932;28;20047;-66
2022/04/10 07:35:02;;;;;;;5.80;4.75;;;;;;;14.96;52.33;98268.56;5074534;28;20762;-67
2022/04/10 07:37:48;;;;;;;4.55;3.60;;;;;;;14.83;51.90;98285.53;5093449;28;20365;-69
2022/04/10 07:40:14;;;;;;;4.10;2.90;;;;;;;14.76;51.25;98290.09;5057049;28;20047;-67
2022/04/10 07:42:43;;;;;;;3.55;2.58;;;;;;;14.84;50.90;98291.69;5073581;28;20047;-67
2022/04/10 07:47:25;;;;;;;3.67;1.77;;;;;;;14.81;50.35;98310.81;5074870;28;20036;-67
2022/04/10 07:48:10;;;;;;;4.68;1.90;;;;;;;14.73;49.49;98311.91;5077326;28;20039;-69
2022/04/10 07:50:38;;;;;;;1.75;1.45;;;;;;;14.78;49.89;98313.94;5057154;28;20059;-67
2022/04/10 07:53:05;;;;;;;2.55;1.60;;;;;;;14.83;48.79;98317.59;5065906;28;20047;-69
2022/04/10 07:55:33;;;;;;;2.17;1.80;;;;;;;14.99;49.77;98330.41;5104674;28;20052;-67
2022/04/10 07:58:04;;;;;;;1.65;1.33;;;;;;;15.11;48.79;98322.53;5090011;28;20051;-69
2022/04/10 08:00:32;;;;;;;2.03;1.35;;;;;;;15.16;48.33;98333.38;5067780;28;20032;-67
2022/04/10 08:03:02;;;;;;;1.40;1.30;;;;;;;15.35;47.52;98347.59;5085942;28;20150;-67
2022/04/10 08:05:50;;;;;;;2.58;1.70;;;;;;;15.39;47.61;98348.84;5084355;28;20108;-68
2022/04/10 08:08:25;;;;;;;6.47;1.40;;;;;;;15.31;46.40;98360.63;5091144;28;20144;-67
2022/04/10 08:10:51;;;;;;;1.60;1.27;;;;;;;15.33;47.15;98358.53;5090021;28;20138;-67
2022/04/10 08:13:16;;;;;;;12.13;6.40;;;;;;;15.38;47.07;98368.59;5088985;28;20828;-67
2022/04/10 08:15:42;;;;;;;2.45;1.45;;;;;;;15.38;45.92;98374.78;5107178;28;20040;-66
2022/04/10 08:18:08;;;;;;;2.70;1.45;;;;;;;15.35;46.23;98360.97;5106121;28;20081;-67
2022/04/10 08:20:35;;;;;;;2.08;1.10;;;;;;;15.32;46.17;98370.28;5107700;28;20519;-67
2022/04/10 08:23:00;;;;;;;1.50;1.10;;;;;;;15.33;46.15;98369.22;5088899;28;20069;-66
2022/04/10 08:25:26;;;;;;;1.58;1.20;;;;;;;15.37;45.79;98378.47;5088812;28;20072;-68
2022/04/10 08:28:02;;;;;;;2.05;1.00;;;;;;;15.40;45.85;98378.06;5105231;28;20428;-68
2022/04/10 08:30:28;;;;;;;1.92;1.67;;;;;;;15.53;46.01;98387.84;5105577;28;20489;-67
2022/04/10 08:32:54;;;;;;;5.03;1.50;;;;;;;15.67;46.04;98386.69;5088340;28;20046;-66
2022/04/10 08:35:22;;;;;;;2.30;1.50;;;;;;;15.61;45.03;98379.50;5092015;28;20049;-67
2022/04/10 08:37:48;;;;;;;2.67;1.70;;;;;;;15.61;44.97;98396.38;5092811;28;20389;-67
2022/04/10 08:40:14;;;;;;;3.75;1.40;;;;;;;15.74;44.66;98427.56;5093494;28;20039;-67
2022/04/10 08:42:40;;;;;;;4.32;1.38;;;;;;;15.51;44.44;98422.00;5109565;28;20048;-66
2022/04/10 08:45:07;;;;;;;2.13;1.17;;;;;;;15.56;44.11;98425.66;5109053;28;20070;-67
2022/04/10 08:47:32;;;;;;;2.45;1.40;;;;;;;15.54;43.88;98454.53;5110794;27;20040;-66
2022/04/10 08:50:01;;;;;;;5.20;1.90;;;;;;;15.71;44.74;98452.94;5076377;28;20472;-67
2022/04/10 08:52:27;;;;;;;2.03;1.70;;;;;;;15.61;44.13;98449.91;5092800;28;20051;-68
2022/04/10 08:54:52;;;;;;;2.45;1.58;;;;;;;15.63;44.01;98469.25;5075618;28;20386;-68
2022/04/10 08:57:18;;;;;;;3.78;1.58;;;;;;;15.78;43.82;98464.41;5074947;28;20147;-67
2022/04/10 08:59:49;;;;;;;3.72;1.70;;;;;;;15.86;43.21;98442.69;5091353;28;20486;-70
2022/04/10 09:02:15;;;;;;;1.70;1.48;;;;;;;15.68;43.59;98423.94;5056297;28;20067;-67
2022/04/10 09:04:41;;;;;;;2.90;1.60;;;;;;;15.93;43.13;98467.53;5072037;28;20071;-65
2022/04/10 09:07:08;;;;;;;2.50;1.45;;;;;;;15.97;42.62;98455.38;5072410;28;20457;-67
2022/04/10 09:09:49;;;;;;;2.45;1.50;;;;;;;16.02;42.29;98454.72;5090764;28;20059;-67
2022/04/10 09:12:14;;;;;;;4.90;1.80;;;;;;;16.00;42.67;98479.03;5090903;28;20051;-70
2022/04/10 09:14:41;;;;;;;1.88;1.50;;;;;;;16.09;42.50;98484.91;5054503;28;20411;-69
2022/04/10 09:17:14;;;;;;;3.13;1.63;;;;;;;16.01;42.08;98424.41;5089573;28;20501;-71
2022/04/10 09:19:53;;;;;;;1.90;1.70;;;;;;;16.47;41.42;98493.59;5063566;28;20142;-68
2022/04/10 09:22:39;;;;;;;2.75;1.55;;;;;;;16.47;41.11;98497.13;5095349;28;20043;-69
2022/04/10 09:25:07;;;;;;;8.07;2.97;;;;;;;16.25;41.73;98501.22;5061469;28;20040;-67
2022/04/10 09:27:39;;;;;;;3.03;1.45;;;;;;;16.45;41.04;98507.22;5089073;28;20130;-69
2022/04/10 09:30:07;;;;;;;2.78;2.15;;;;;;;16.10;41.54;98482.00;5060059;28;20138;-68
2022/04/10 09:32:37;;;;;;;3.58;2.08;;;;;;;16.35;41.55;98506.06;5074222;28;20121;-66
2022/04/10 09:35:03;;;;;;;5.55;1.60;;;;;;;16.09;41.51;98512.53;5091755;28;20075;-67
2022/04/10 09:37:32;;;;;;;2.28;1.75;;;;;;;16.33;41.11;98525.06;5090976;28;20516;-68
2022/04/10 09:40:23;;;;;;;2.30;1.75;;;;;;;16.48;40.91;98536.25;5074715;28;20036;-68
2022/04/10 09:43:00;;;;;;;3.75;2.10;;;;;;;16.60;39.99;98537.19;5074486;28;20051;-69
2022/04/10 09:45:52;;;;;;;3.83;1.90;;;;;;;16.59;39.67;98553.50;5071897;28;20059;-69
2022/04/10 09:48:22;;;;;;;1.90;1.65;;;;;;;16.72;38.96;98559.53;5068611;28;20051;-69
2022/04/10 09:50:54;;;;;;;2.30;1.75;;;;;;;16.80;39.03;98553.84;5088543;28;20531;-69
2022/04/10 09:53:20;;;;;;;5.00;1.92;;;;;;;16.77;38.69;98559.66;5088254;28;20079;-69
2022/04/10 09:55:52;;;;;;;3.47;1.70;;;;;;;16.69;38.82;98518.94;5088664;28;20047;-68
2022/04/10 09:58:19;;;;;;;2.40;1.70;;;;;;;16.84;38.44;98568.47;5088356;28;20097;-68
2022/04/10 10:00:45;;;;;;;3.70;1.80;;;;;;;16.92;38.83;98570.03;5057337;28;20040;-69
2022/04/10 10:03:12;;;;;;;1.98;1.70;;;;;;;16.77;37.99;98573.06;5056629;28;20455;-69
2022/04/10 10:05:38;;;;;;;4.28;1.80;;;;;;;16.88;37.89;98580.38;5057212;28;20036;-69
2022/04/10 10:08:06;;;;;;;3.20;1.90;;;;;;;17.04;37.87;98589.69;5056784;28;20036;-68
2022/04/10 10:10:36;;;;;;;5.20;2.08;;;;;;;16.99;37.42;98589.53;5090484;28;20036;-69
2022/04/10 10:13:06;;;;;;;4.93;2.05;;;;;;;17.20;36.97;98609.72;5107567;28;20044;-69
2022/04/10 10:15:32;;;;;;;2.53;2.08;;;;;;;17.35;36.50;98604.78;5090944;28;20044;-69
2022/04/10 10:18:01;;;;;;;2.60;1.55;;;;;;;17.49;35.30;98574.91;5039868;28;20043;-69
2022/04/10 10:20:28;;;;;;;3.83;1.65;;;;;;;17.88;34.78;98605.75;5090510;28;20048;-69
2022/04/10 10:22:53;;;;;;;2.65;1.65;;;;;;;18.07;33.96;98610.81;5090159;28;20091;-69
2022/04/10 10:25:28;;;;;;;4.68;1.70;;;;;;;18.32;34.02;98618.69;5056727;28;20047;-67
2022/04/10 10:28:18;;;;;;;4.10;2.10;;;;;;;18.50;33.68;98625.88;5073120;28;20040;-68
2022/04/10 10:30:56;;;;;;;4.13;1.90;;;;;;;18.45;33.13;98624.69;5096296;28;20061;-68
2022/04/10 10:33:23;;;;;;;1.98;1.63;;;;;;;18.40;32.84;98638.00;5107960;28;20042;-69
2022/04/10 10:35:52;;;;;;;3.03;2.00;;;;;;;18.32;33.64;98635.63;5091246;28;20039;-67
2022/04/10 10:38:38;;;;;;;2.78;2.00;;;;;;;18.48;33.32;98647.63;5082724;28;20039;-69
2022/04/10 10:41:16;;;;;;;7.20;1.77;;;;;;;18.54;33.05;98649.38;5091755;28;20039;-71
2022/04/10 10:43:42;;;;;;;4.28;1.80;;;;;;;18.34;32.83;98656.91;5074736;28;20413;-67
2022/04/10 10:46:21;;;;;;;2.00;1.90;;;;;;;18.46;32.51;98673.91;5110805;28;20042;-68
2022/04/10 10:48:48;;;;;;;2.75;1.83;;;;;;;18.16;32.80;98673.91;5110737;28;20048;-68
2022/04/10 10:51:15;;;;;;;4.63;2.38;;;;;;;18.04;33.00;98673.06;5071910;28;20043;-68
2022/04/10 10:53:57;;;;;;;8.00;2.22;;;;;;;18.07;33.00;98651.09;5109625;28;20508;-67
2022/04/10 10:56:29;;;;;;;5.03;2.50;;;;;;;17.95;33.66;98650.25;5072628;28;20721;-68
2022/04/10 10:59:37;;;;;;;4.90;2.30;;;;;;;17.94;33.30;98647.81;5073483;28;20401;-69
2022/04/10 11:02:10;;;;;;;6.22;2.30;;;;;;;17.94;34.05;98656.66;5073820;28;20509;-65
2022/04/10 11:04:40;;;;;;;6.70;2.47;;;;;;;17.97;33.67;98648.19;5089476;28;20255;-68
2022/04/10 11:07:19;;;;;;;3.60;2.90;;;;;;;18.02;34.98;98634.84;5089365;28;20089;-68
2022/04/10 11:09:55;;;;;;;4.05;2.75;;;;;;;18.01;33.90;98640.44;5071723;28;20123;-67
2022/04/10 11:12:28;;;;;;;5.15;2.65;;;;;;;17.91;34.08;98634.84;5089650;28;20497;-69
2022/04/10 11:14:56;;;;;;;7.38;2.75;;;;;;;17.71;33.94;98636.97;5073042;28;20044;-69
2022/04/10 11:17:28;;;;;;;6.53;2.92;;;;;;;17.42;33.97;98543.81;5068852;28;20043;-68
2022/04/10 11:19:58;;;;;;;9.32;3.25;;;;;;;17.98;33.16;98643.59;5109428;28;20118;-70
2022/04/10 11:22:47;;;;;;;8.75;3.00;;;;;;;17.97;34.01;98631.22;5091663;28;20051;-70
2022/04/10 11:25:31;;;;;;;7.70;3.20;;;;;;;18.04;33.62;98648.06;5110663;28;20134;-69
2022/04/10 11:28:03;;;;;;;8.32;3.08;;;;;;;17.95;34.50;98646.75;5109172;28;20049;-67
2022/04/10 11:30:39;;;;;;;7.65;2.80;;;;;;;17.85;33.58;98649.97;5075733;28;20494;-70
2022/04/10 11:33:10;;;;;;;9.68;2.60;;;;;;;17.87;32.99;98652.44;5110117;28;20044;-70
2022/04/10 11:35:38;;;;;;;8.23;2.50;;;;;;;17.83;33.51;98641.34;5108247;28;20062;-69
2022/04/10 11:38:13;;;;;;;10.15;3.25;;;;;;;17.86;33.71;98637.38;5058386;28;20069;-71
2022/04/10 11:40:41;;;;;;;6.75;2.80;;;;;;;17.77;33.60;98644.13;5109851;28;20039;-71
2022/04/10 11:43:08;;;;;;;6.45;3.10;;;;;;;17.62;33.04;98614.19;5092652;28;20042;-76
2022/04/10 11:45:35;;;;;;;8.73;3.05;;;;;;;17.66;33.40;98628.78;5091902;28;20059;-70
2022/04/10 11:48:05;;;;;;;9.32;3.50;;;;;;;17.74;32.98;98636.53;5082451;28;20047;-71
2022/04/10 11:50:32;;;;;;;4.53;2.80;;;;;;;17.58;32.87;98650.56;5083326;28;20059;-71
2022/04/10 11:53:06;;;;;;;6.70;2.80;;;;;;;17.62;33.12;98641.03;5088413;28;20524;-70
2022/04/10 11:55:35;;;;;;;10.50;3.20;;;;;;;17.61;33.20;98637.50;5086140;28;20143;-71
2022/04/10 11:58:16;;;;;;;6.07;3.13;;;;;;;17.70;32.44;98660.31;5105999;28;20188;-70
2022/04/10 12:00:46;;;;;;;;;;;;;;;17.92;34.50;98660.63;5086019;28;20048;-70